Time;durP1;ratioP1;P1;durP2;ratioP2;P2;SDS_P1;SDS_P2;PMS_P1;PMS_P2;Temp;Humidity;BMP_temperature;BMP_pressure;BME280_temperature;BME280_humidity;BME280_pressure;Samples;Min_cycle;Max_cycle;Signal;HPM_P1;HPM_P2
2021/08/07 00:01:21;;;;;;;4.20;4.10;;;19.80;99.90;;;;;;4935253;29;20189;-68
2021/08/07 00:03:48;;;;;;;4.77;4.57;;;19.80;99.90;;;;;;4942973;29;20409;-68
2021/08/07 00:06:13;;;;;;;4.60;4.50;;;19.80;99.90;;;;;;4939695;29;20417;-68
2021/08/07 00:08:39;;;;;;;5.60;5.20;;;19.80;99.90;;;;;;4936052;29;20429;-68
2021/08/07 00:11:05;;;;;;;5.70;5.30;;;19.80;99.90;;;;;;4936040;29;20535;-68
2021/08/07 00:13:30;;;;;;;5.03;4.73;;;19.80;99.90;;;;;;4936294;29;20625;-69
2021/08/07 00:15:56;;;;;;;5.10;4.80;;;19.80;99.90;;;;;;4935712;29;20614;-68
2021/08/07 00:18:22;;;;;;;5.47;5.20;;;19.80;99.90;;;;;;4936102;29;20220;-68
2021/08/07 00:20:47;;;;;;;4.90;4.70;;;19.70;99.90;;;;;;4934494;29;20178;-68
2021/08/07 00:23:13;;;;;;;5.50;5.17;;;19.70;99.90;;;;;;4934967;29;20228;-68
2021/08/07 00:25:39;;;;;;;4.50;4.40;;;19.70;99.90;;;;;;4935990;29;20182;-69
2021/08/07 00:28:05;;;;;;;5.00;4.80;;;19.70;99.90;;;;;;4935328;29;20196;-68
2021/08/07 00:30:31;;;;;;;4.90;4.70;;;19.60;99.90;;;;;;4948535;29;20311;-68
2021/08/07 00:32:56;;;;;;;4.83;4.63;;;19.60;99.90;;;;;;4954480;29;20611;-68
2021/08/07 00:35:22;;;;;;;4.90;4.60;;;19.70;99.90;;;;;;4945832;29;20524;-66
2021/08/07 00:37:48;;;;;;;5.47;5.17;;;19.70;99.90;;;;;;4935097;29;20634;-66
2021/08/07 00:40:14;;;;;;;5.10;4.90;;;19.70;99.90;;;;;;4935610;29;20626;-66
2021/08/07 00:42:40;;;;;;;5.63;5.33;;;19.70;99.90;;;;;;4935720;29;20181;-66
2021/08/07 00:45:07;;;;;;;4.83;4.53;;;19.70;99.90;;;;;;4934853;29;20464;-67
2021/08/07 00:47:32;;;;;;;4.37;4.17;;;19.60;99.90;;;;;;4935547;29;20426;-68
2021/08/07 00:49:58;;;;;;;4.67;4.47;;;19.60;99.90;;;;;;4935070;29;20468;-66
2021/08/07 00:52:24;;;;;;;4.50;4.30;;;19.60;99.90;;;;;;4935684;29;20220;-66
2021/08/07 00:54:52;;;;;;;4.60;4.33;;;19.60;99.90;;;;;;4934894;29;20174;-66
2021/08/07 00:57:17;;;;;;;4.20;4.00;;;19.60;99.90;;;;;;4935442;29;20355;-67
2021/08/07 00:59:43;;;;;;;3.57;3.47;;;19.60;99.90;;;;;;4934974;29;20516;-67
2021/08/07 01:02:13;;;;;;;5.20;3.80;;;19.60;99.90;;;;;;4934940;29;20191;-66
2021/08/07 01:04:50;;;;;;;4.13;3.93;;;19.60;99.90;;;;;;4934445;29;20192;-67
2021/08/07 01:07:31;;;;;;;3.87;3.63;;;19.60;99.90;;;;;;4935474;29;20398;-67
2021/08/07 01:10:02;;;;;;;3.60;3.50;;;19.60;99.90;;;;;;4934799;29;20409;-66
2021/08/07 01:12:40;;;;;;;5.17;4.87;;;19.60;99.90;;;;;;4935440;29;20390;-67
2021/08/07 01:15:09;;;;;;;3.90;3.70;;;19.50;99.90;;;;;;4934811;29;20434;-67
2021/08/07 01:17:40;;;;;;;4.13;3.83;;;19.50;99.90;;;;;;4935144;29;20464;-67
2021/08/07 01:20:22;;;;;;;3.63;3.43;;;19.50;99.90;;;;;;4934430;29;20457;-67
2021/08/07 01:22:57;;;;;;;3.50;3.40;;;19.50;99.90;;;;;;4934844;29;20413;-68
2021/08/07 01:25:33;;;;;;;3.70;3.50;;;19.50;99.90;;;;;;4935357;29;20401;-68
2021/08/07 01:28:01;;;;;;;4.43;4.23;;;19.50;99.90;;;;;;4934523;29;20749;-69
2021/08/07 01:30:27;;;;;;;3.57;3.37;;;19.50;99.90;;;;;;4935188;29;20477;-68
2021/08/07 01:32:55;;;;;;;3.70;3.50;;;19.50;99.90;;;;;;4934407;29;20480;-69
2021/08/07 01:35:21;;;;;;;3.80;3.60;;;19.60;99.90;;;;;;4935326;29;20644;-68
2021/08/07 01:37:47;;;;;;;3.80;3.60;;;19.60;99.90;;;;;;4934617;29;20445;-75
2021/08/07 01:40:13;;;;;;;4.23;3.83;;;19.50;99.90;;;;;;4935220;29;20438;-69
2021/08/07 01:42:39;;;;;;;3.67;3.47;;;19.50;99.90;;;;;;4935131;29;20481;-68
2021/08/07 01:45:05;;;;;;;3.37;3.23;;;19.50;99.90;;;;;;4934521;29;20406;-68
2021/08/07 01:47:48;;;;;;;3.80;3.60;;;19.50;99.90;;;;;;4934834;29;20638;-68
2021/08/07 01:50:22;;;;;;;3.83;3.53;;;19.50;99.90;;;;;;4935076;29;20414;-68
2021/08/07 01:52:49;;;;;;;3.10;3.00;;;19.50;99.90;;;;;;4935185;29;20485;-68
2021/08/07 01:55:22;;;;;;;3.63;3.43;;;19.50;99.90;;;;;;4935057;29;20408;-68
2021/08/07 01:58:00;;;;;;;3.53;3.30;;;19.50;99.90;;;;;;4934508;29;20941;-74
2021/08/07 02:00:26;;;;;;;3.87;3.67;;;19.50;99.90;;;;;;4934772;29;20473;-68
2021/08/07 02:02:53;;;;;;;3.70;3.50;;;19.50;99.90;;;;;;4934388;29;20409;-68
2021/08/07 02:05:20;;;;;;;4.00;3.23;;;19.40;99.90;;;;;;4934568;29;20422;-68
2021/08/07 02:07:51;;;;;;;3.43;3.30;;;19.40;99.90;;;;;;4934445;29;20432;-69
2021/08/07 02:10:18;;;;;;;3.20;3.00;;;19.40;99.90;;;;;;4934971;29;20417;-69
2021/08/07 02:12:46;;;;;;;3.63;3.33;;;19.30;99.90;;;;;;4934884;29;20458;-69
2021/08/07 02:15:16;;;;;;;3.90;3.60;;;19.30;99.90;;;;;;4934299;29;20421;-69
2021/08/07 02:17:43;;;;;;;3.40;3.20;;;19.30;99.90;;;;;;4938474;29;20463;-69
2021/08/07 02:20:13;;;;;;;3.80;3.40;;;19.30;99.90;;;;;;4937333;29;20420;-74
2021/08/07 02:22:40;;;;;;;3.40;3.30;;;19.20;99.90;;;;;;4933880;29;20828;-69
2021/08/07 02:25:06;;;;;;;3.83;3.57;;;19.30;99.90;;;;;;4937051;29;20417;-69
2021/08/07 02:27:33;;;;;;;3.60;3.40;;;19.30;99.90;;;;;;4937590;29;20425;-69
2021/08/07 02:30:00;;;;;;;3.30;3.20;;;19.30;99.90;;;;;;4937461;29;20457;-69
2021/08/07 02:32:26;;;;;;;3.60;3.50;;;19.30;99.90;;;;;;4938205;29;20410;-69
2021/08/07 02:34:52;;;;;;;3.73;3.53;;;19.30;99.90;;;;;;4937224;29;20500;-70
2021/08/07 02:37:18;;;;;;;3.60;3.40;;;19.30;99.90;;;;;;4938021;29;20210;-69
2021/08/07 02:39:45;;;;;;;3.60;3.40;;;19.30;99.90;;;;;;4937924;29;20766;-69
2021/08/07 02:42:11;;;;;;;3.80;3.60;;;19.30;99.90;;;;;;4936977;29;20925;-69
2021/08/07 02:44:38;;;;;;;3.30;3.20;;;19.40;99.90;;;;;;4937888;29;20465;-69
2021/08/07 02:47:04;;;;;;;3.80;3.60;;;19.30;99.90;;;;;;4936870;29;20434;-69
2021/08/07 02:49:30;;;;;;;3.80;3.50;;;19.30;99.90;;;;;;4937749;29;20417;-71
2021/08/07 02:51:55;;;;;;;4.17;3.87;;;19.40;99.90;;;;;;4937218;29;20428;-68
2021/08/07 02:54:22;;;;;;;3.80;3.57;;;19.40;99.90;;;;;;4936225;29;20425;-69
2021/08/07 02:56:48;;;;;;;3.30;3.10;;;19.30;99.90;;;;;;4937188;29;20178;-69
2021/08/07 02:59:14;;;;;;;4.00;3.70;;;19.30;99.90;;;;;;4936601;29;20959;-68
2021/08/07 03:01:40;;;;;;;3.87;3.57;;;19.30;99.90;;;;;;4937429;29;20441;-69
2021/08/07 03:04:06;;;;;;;3.80;3.70;;;19.20;99.90;;;;;;4936814;29;20182;-69
2021/08/07 03:06:32;;;;;;;3.90;3.70;;;19.20;99.90;;;;;;4939468;29;20174;-68
2021/08/07 03:08:58;;;;;;;4.20;3.70;;;19.20;99.90;;;;;;4955622;29;20521;-68
2021/08/07 03:11:24;;;;;;;3.70;3.57;;;19.10;99.90;;;;;;4956544;28;20401;-68
2021/08/07 03:13:49;;;;;;;4.10;3.90;;;19.10;99.90;;;;;;4956580;29;20173;-68
2021/08/07 03:16:15;;;;;;;4.60;3.80;;;19.00;99.90;;;;;;4946450;29;20189;-69
2021/08/07 03:18:41;;;;;;;4.13;3.93;;;19.00;99.90;;;;;;4940343;29;20249;-68
2021/08/07 03:21:06;;;;;;;4.20;4.00;;;19.00;99.90;;;;;;4939737;29;20186;-68
2021/08/07 03:23:32;;;;;;;4.70;3.90;;;18.90;99.90;;;;;;4946497;29;20180;-68
2021/08/07 03:25:58;;;;;;;4.23;3.93;;;18.90;99.90;;;;;;4938410;29;20268;-68
2021/08/07 03:28:23;;;;;;;3.80;3.60;;;18.90;99.90;;;;;;4936310;29;20181;-70
2021/08/07 03:30:49;;;;;;;4.40;4.10;;;18.80;99.90;;;;;;4936495;29;20233;-68
2021/08/07 03:33:15;;;;;;;4.47;4.17;;;18.80;99.90;;;;;;4944685;29;20629;-68
2021/08/07 03:35:41;;;;;;;3.90;3.70;;;18.90;99.90;;;;;;4956061;29;20188;-68
2021/08/07 03:38:06;;;;;;;4.90;4.60;;;18.80;99.90;;;;;;4955633;28;20220;-68
2021/08/07 03:40:32;;;;;;;4.67;4.40;;;18.80;99.90;;;;;;4955994;29;20228;-68
2021/08/07 03:42:57;;;;;;;4.80;4.50;;;18.80;99.90;;;;;;4938059;29;20174;-68
2021/08/07 03:45:23;;;;;;;4.50;4.30;;;18.80;99.90;;;;;;4936847;29;20217;-68
2021/08/07 03:47:53;;;;;;;4.43;4.13;;;18.70;99.90;;;;;;4944695;29;20621;-68
2021/08/07 03:50:21;;;;;;;4.53;4.23;;;18.70;99.90;;;;;;4956019;28;20630;-68
2021/08/07 03:52:47;;;;;;;4.87;4.57;;;18.60;99.90;;;;;;4949380;28;20428;-68
2021/08/07 03:55:13;;;;;;;4.73;4.43;;;18.60;99.90;;;;;;4944364;28;20405;-68
2021/08/07 03:57:55;;;;;;;4.30;4.00;;;18.50;99.90;;;;;;4938956;29;20544;-68
2021/08/07 04:00:26;;;;;;;4.47;4.20;;;18.50;99.90;;;;;;4936759;29;20812;-68
2021/08/07 04:02:52;;;;;;;5.27;4.97;;;18.50;99.90;;;;;;4936679;29;20558;-68
2021/08/07 04:05:17;;;;;;;4.70;4.40;;;18.50;99.90;;;;;;4935952;29;20849;-68
2021/08/07 04:07:43;;;;;;;4.53;4.30;;;18.50;99.90;;;;;;4936440;29;20186;-68
2021/08/07 04:10:09;;;;;;;4.40;4.10;;;18.50;99.90;;;;;;4935757;29;20212;-68
2021/08/07 04:12:36;;;;;;;4.90;4.60;;;18.50;99.90;;;;;;4936389;29;20529;-68
2021/08/07 04:15:01;;;;;;;4.50;4.30;;;18.50;99.90;;;;;;4935756;29;20418;-67
2021/08/07 04:17:27;;;;;;;3.90;3.70;;;18.50;99.90;;;;;;4936233;29;20457;-68
2021/08/07 04:19:53;;;;;;;4.67;4.47;;;18.50;99.90;;;;;;4935985;29;20256;-67
2021/08/07 04:22:18;;;;;;;5.00;4.67;;;18.50;99.90;;;;;;4935276;29;20186;-67
2021/08/07 04:24:44;;;;;;;4.53;4.33;;;18.50;99.90;;;;;;4936449;29;20182;-68
2021/08/07 04:27:10;;;;;;;4.60;4.20;;;18.50;99.90;;;;;;4935527;29;20181;-67
2021/08/07 04:29:35;;;;;;;4.43;4.23;;;18.50;99.90;;;;;;4935750;29;20230;-67
2021/08/07 04:32:01;;;;;;;4.50;4.30;;;18.50;99.90;;;;;;4935544;29;20604;-67
2021/08/07 04:34:27;;;;;;;4.40;4.20;;;18.50;99.90;;;;;;4935721;29;20181;-67
2021/08/07 04:36:53;;;;;;;5.17;4.97;;;18.50;99.90;;;;;;4935902;29;20181;-67
2021/08/07 04:39:19;;;;;;;4.40;4.10;;;18.60;99.90;;;;;;4935567;29;20610;-67
2021/08/07 04:41:44;;;;;;;4.67;4.37;;;18.50;99.90;;;;;;4935724;29;20932;-67
2021/08/07 04:44:10;;;;;;;4.60;4.40;;;18.60;99.90;;;;;;4935256;29;20184;-68
2021/08/07 04:46:36;;;;;;;4.20;4.00;;;18.50;99.90;;;;;;4935555;29;20217;-67
2021/08/07 04:49:02;;;;;;;4.40;4.00;;;18.60;99.90;;;;;;4935255;29;20184;-68
2021/08/07 04:51:28;;;;;;;4.60;4.30;;;18.60;99.90;;;;;;4935764;29;20506;-67
2021/08/07 04:53:54;;;;;;;4.50;4.20;;;18.60;99.90;;;;;;4935708;29;20404;-67
2021/08/07 04:56:19;;;;;;;5.20;4.70;;;18.70;99.90;;;;;;4935125;29;20182;-67
2021/08/07 04:58:45;;;;;;;4.87;4.60;;;18.80;99.90;;;;;;4935489;29;20464;-68
2021/08/07 05:01:11;;;;;;;4.00;3.90;;;18.80;99.90;;;;;;4934843;29;20213;-67
2021/08/07 05:03:37;;;;;;;4.80;4.50;;;18.90;99.90;;;;;;4935405;29;20441;-67
2021/08/07 05:06:02;;;;;;;4.40;4.10;;;18.80;99.90;;;;;;4934964;29;20626;-68
2021/08/07 05:08:29;;;;;;;4.67;4.47;;;18.80;99.90;;;;;;4935843;29;20205;-67
2021/08/07 05:10:56;;;;;;;4.63;4.33;;;18.90;99.90;;;;;;4935423;29;20214;-67
2021/08/07 05:13:22;;;;;;;4.20;4.00;;;18.80;99.90;;;;;;4934616;29;20785;-67
2021/08/07 05:15:47;;;;;;;4.03;3.80;;;18.80;99.90;;;;;;4935457;29;20398;-67
2021/08/07 05:18:13;;;;;;;4.00;3.80;;;18.80;99.90;;;;;;4934734;29;20201;-67
2021/08/07 05:20:39;;;;;;;4.20;4.00;;;18.60;99.90;;;;;;4935243;29;20647;-67
2021/08/07 05:23:04;;;;;;;4.10;4.00;;;18.50;99.90;;;;;;4934186;29;20449;-68
2021/08/07 05:25:30;;;;;;;4.10;3.90;;;18.30;99.90;;;;;;4935324;29;20197;-67
2021/08/07 05:27:56;;;;;;;4.57;4.47;;;18.20;99.90;;;;;;4935370;29;20268;-67
2021/08/07 05:30:22;;;;;;;4.20;4.00;;;18.10;99.90;;;;;;4932944;29;20729;-67
2021/08/07 05:32:48;;;;;;;4.13;3.93;;;18.00;99.90;;;;;;4924185;29;20550;-67
2021/08/07 05:35:14;;;;;;;4.87;4.37;;;18.00;99.90;;;;;;4929909;29;20537;-67
2021/08/07 05:37:40;;;;;;;4.10;3.80;;;18.00;99.90;;;;;;4915784;29;20450;-67
2021/08/07 05:40:08;;;;;;;4.67;4.47;;;18.10;99.90;;;;;;4914980;29;20178;-68
2021/08/07 05:42:34;;;;;;;4.30;4.10;;;18.10;99.90;;;;;;4928065;29;20436;-67
2021/08/07 05:45:00;;;;;;;4.40;4.10;;;18.10;99.90;;;;;;4924228;29;20433;-71
2021/08/07 05:47:25;;;;;;;3.60;3.50;;;18.20;99.90;;;;;;4928048;29;20623;-68
2021/08/07 05:49:51;;;;;;;4.07;3.87;;;18.20;99.90;;;;;;4915654;29;20238;-67
2021/08/07 05:52:17;;;;;;;4.20;4.10;;;18.30;99.90;;;;;;4918572;29;20171;-67
2021/08/07 05:54:42;;;;;;;4.37;4.03;;;18.40;99.90;;;;;;4919538;29;20201;-67
2021/08/07 05:57:08;;;;;;;4.10;3.90;;;18.30;99.90;;;;;;4918443;29;20206;-67
2021/08/07 05:59:34;;;;;;;4.20;4.00;;;18.40;99.90;;;;;;4919660;29;20201;-67
2021/08/07 06:02:00;;;;;;;4.43;4.17;;;18.50;99.90;;;;;;4918954;29;20187;-67
2021/08/07 06:04:26;;;;;;;4.50;4.30;;;18.50;99.90;;;;;;4919453;29;20175;-67
2021/08/07 06:06:51;;;;;;;5.57;5.17;;;18.50;99.90;;;;;;4918899;29;20426;-68
2021/08/07 06:09:17;;;;;;;4.60;4.40;;;18.60;99.90;;;;;;4929001;29;20242;-69
2021/08/07 06:11:43;;;;;;;4.77;4.50;;;18.80;99.90;;;;;;4928939;29;20178;-69
2021/08/07 06:14:09;;;;;;;5.30;4.80;;;19.00;99.90;;;;;;4937754;29;20709;-69
2021/08/07 06:16:34;;;;;;;3.90;3.57;;;19.20;99.90;;;;;;4922269;29;20185;-69
2021/08/07 06:19:00;;;;;;;3.80;3.60;;;19.30;99.90;;;;;;4931278;29;20469;-68
2021/08/07 06:21:26;;;;;;;4.10;3.80;;;19.50;99.90;;;;;;4933569;29;20190;-69
2021/08/07 06:23:52;;;;;;;3.77;3.57;;;19.60;99.90;;;;;;4923301;29;20572;-69
2021/08/07 06:26:17;;;;;;;3.60;3.40;;;19.80;99.90;;;;;;4918354;29;20260;-69
2021/08/07 06:28:43;;;;;;;3.80;3.60;;;19.90;99.90;;;;;;4918478;29;20241;-69
2021/08/07 06:31:09;;;;;;;3.70;3.40;;;20.00;99.90;;;;;;4936229;29;20575;-69
2021/08/07 06:33:36;;;;;;;3.70;3.40;;;20.10;99.90;;;;;;4938186;29;20253;-69
2021/08/07 06:36:02;;;;;;;3.73;3.53;;;20.30;99.90;;;;;;4938263;29;20539;-69
2021/08/07 06:38:28;;;;;;;3.83;3.63;;;20.40;99.90;;;;;;4937427;29;20449;-69
2021/08/07 06:40:54;;;;;;;3.87;3.60;;;20.40;99.90;;;;;;4937473;29;20432;-69
2021/08/07 06:43:19;;;;;;;4.00;3.70;;;20.50;99.90;;;;;;4944055;29;20658;-69
2021/08/07 06:45:46;;;;;;;3.73;3.33;;;20.60;99.90;;;;;;4937942;29;20178;-69
2021/08/07 06:48:12;;;;;;;3.60;3.30;;;20.60;99.90;;;;;;4937038;29;20233;-69
2021/08/07 06:50:38;;;;;;;4.27;3.97;;;20.70;99.90;;;;;;4939976;29;20409;-69
2021/08/07 06:53:04;;;;;;;3.60;3.30;;;20.80;99.90;;;;;;4936605;29;20421;-75
2021/08/07 06:55:30;;;;;;;4.10;3.80;;;20.90;99.90;;;;;;4944343;29;20645;-69
2021/08/07 06:57:55;;;;;;;5.00;4.70;;;20.90;99.90;;;;;;4946255;28;20831;-69
2021/08/07 07:00:21;;;;;;;4.37;3.97;;;20.90;99.90;;;;;;4950955;29;20221;-69
2021/08/07 07:02:47;;;;;;;4.33;3.40;;;20.90;99.90;;;;;;4939781;28;20181;-69
2021/08/07 07:05:13;;;;;;;3.67;3.43;;;20.90;99.90;;;;;;4935987;29;20430;-69
2021/08/07 07:07:39;;;;;;;3.77;3.57;;;20.90;99.90;;;;;;4937128;29;20210;-69
2021/08/07 07:10:13;;;;;;;3.60;3.30;;;20.90;99.90;;;;;;4952953;29;20412;-75
2021/08/07 07:12:40;;;;;;;3.60;3.40;;;21.00;99.90;;;;;;4948791;28;20409;-69
2021/08/07 07:15:06;;;;;;;5.40;3.40;;;21.00;99.90;;;;;;4942931;29;20466;-71
2021/08/07 07:17:32;;;;;;;6.30;5.80;;;21.10;99.90;;;;;;4937935;28;20467;-71
2021/08/07 07:19:58;;;;;;;4.13;3.93;;;21.10;99.90;;;;;;4937416;29;20959;-69
2021/08/07 07:22:24;;;;;;;3.33;3.13;;;21.10;99.90;;;;;;4936606;29;20447;-68
2021/08/07 07:24:50;;;;;;;3.60;3.40;;;20.90;99.90;;;;;;4936625;29;20928;-69
2021/08/07 07:27:16;;;;;;;3.70;3.40;;;20.90;99.90;;;;;;4936163;29;20177;-69
2021/08/07 07:29:41;;;;;;;4.20;3.80;;;20.80;99.90;;;;;;4936966;29;20539;-69
2021/08/07 07:32:09;;;;;;;3.00;2.80;;;20.90;99.90;;;;;;4936040;29;20201;-70
2021/08/07 07:34:36;;;;;;;3.37;3.17;;;21.00;99.90;;;;;;4937277;29;20178;-70
2021/08/07 07:37:02;;;;;;;3.93;3.60;;;21.00;99.90;;;;;;4937204;29;20762;-69
2021/08/07 07:39:28;;;;;;;5.67;5.07;;;21.10;99.90;;;;;;4936175;29;20957;-69
2021/08/07 07:41:53;;;;;;;4.43;4.03;;;21.20;99.90;;;;;;4932041;29;20510;-69
2021/08/07 07:44:19;;;;;;;3.60;3.40;;;21.20;99.90;;;;;;4924534;29;20505;-69
2021/08/07 07:46:45;;;;;;;4.33;3.50;;;21.20;99.90;;;;;;4936849;29;20204;-69
2021/08/07 07:49:11;;;;;;;3.37;3.20;;;21.20;99.80;;;;;;4936195;29;20198;-68
2021/08/07 07:51:36;;;;;;;4.53;3.30;;;21.20;99.70;;;;;;4936962;29;20909;-69
2021/08/07 07:54:02;;;;;;;3.30;3.20;;;21.20;99.90;;;;;;4921279;29;20247;-69
2021/08/07 07:56:28;;;;;;;4.53;4.30;;;21.20;99.40;;;;;;4915992;29;20245;-69
2021/08/07 07:58:54;;;;;;;3.67;3.57;;;21.30;99.80;;;;;;4918468;29;20230;-69
2021/08/07 08:01:20;;;;;;;3.13;2.97;;;21.30;99.90;;;;;;4920909;29;20289;-69
2021/08/07 08:03:45;;;;;;;3.40;3.20;;;21.20;99.90;;;;;;4936430;29;20182;-69
2021/08/07 08:06:11;;;;;;;6.70;6.13;;;21.10;99.30;;;;;;4935930;29;20182;-69
2021/08/07 08:08:37;;;;;;;5.37;4.97;;;20.90;99.90;;;;;;4936652;29;20541;-69
2021/08/07 08:11:02;;;;;;;4.00;3.80;;;20.90;99.90;;;;;;4936182;29;20186;-69
2021/08/07 08:13:28;;;;;;;3.37;3.17;;;21.00;99.90;;;;;;4935071;29;20177;-69
2021/08/07 08:15:54;;;;;;;3.87;3.60;;;20.90;99.90;;;;;;4934793;29;20178;-69
2021/08/07 08:18:20;;;;;;;4.00;3.70;;;20.90;99.90;;;;;;4935804;29;20222;-68
2021/08/07 08:20:46;;;;;;;3.50;3.30;;;21.00;99.90;;;;;;4936303;29;20425;-68
2021/08/07 08:23:12;;;;;;;4.87;4.47;;;21.00;99.90;;;;;;4935790;29;20185;-73
2021/08/07 08:25:38;;;;;;;3.23;3.03;;;21.10;99.90;;;;;;4936086;29;20410;-68
2021/08/07 08:28:06;;;;;;;4.43;3.40;;;21.10;99.80;;;;;;4933551;29;20630;-69
2021/08/07 08:30:33;;;;;;;4.10;3.77;;;21.00;99.70;;;;;;4934696;29;20532;-70
2021/08/07 08:32:59;;;;;;;4.10;3.70;;;20.90;99.80;;;;;;4934876;29;20426;-70
2021/08/07 08:35:24;;;;;;;4.33;3.50;;;20.90;99.90;;;;;;4933623;29;20422;-70
2021/08/07 08:37:50;;;;;;;4.60;3.63;;;20.90;99.90;;;;;;4935114;29;20206;-69
2021/08/07 08:40:16;;;;;;;9.07;3.50;;;21.00;99.90;;;;;;4934865;29;20186;-70
2021/08/07 08:42:42;;;;;;;5.47;4.37;;;21.00;99.90;;;;;;4935581;29;20409;-70
2021/08/07 08:45:09;;;;;;;4.00;3.60;;;21.10;99.90;;;;;;4935525;29;20260;-70
2021/08/07 08:47:36;;;;;;;6.43;5.90;;;21.20;99.90;;;;;;4934248;29;20433;-70
2021/08/07 08:50:03;;;;;;;4.13;3.83;;;21.40;99.90;;;;;;4935440;29;20414;-70
2021/08/07 08:52:31;;;;;;;5.17;3.70;;;21.40;99.60;;;;;;4934484;29;20410;-70
2021/08/07 08:54:58;;;;;;;3.60;3.33;;;21.40;99.10;;;;;;4934269;29;20414;-70
2021/08/07 08:57:24;;;;;;;7.83;6.50;;;21.60;99.50;;;;;;4933333;29;20455;-70
2021/08/07 08:59:50;;;;;;;4.47;4.17;;;21.70;99.20;;;;;;4935424;29;20414;-70
2021/08/07 09:02:16;;;;;;;3.73;3.47;;;21.80;99.30;;;;;;4934505;29;20416;-71
2021/08/07 09:04:42;;;;;;;4.03;3.73;;;21.90;97.90;;;;;;4934751;29;20472;-70
2021/08/07 09:07:11;;;;;;;3.60;3.30;;;22.00;98.80;;;;;;4935050;29;20457;-69
2021/08/07 09:09:42;;;;;;;3.60;3.40;;;22.10;98.10;;;;;;4933983;29;20254;-70
2021/08/07 09:12:10;;;;;;;3.83;3.63;;;22.00;97.50;;;;;;4934811;29;20445;-70
2021/08/07 09:14:37;;;;;;;3.33;2.97;;;22.20;98.30;;;;;;4934567;29;20405;-70
2021/08/07 09:17:13;;;;;;;3.73;3.47;;;22.20;97.30;;;;;;4934664;29;20426;-70
2021/08/07 09:19:38;;;;;;;3.10;3.00;;;22.30;97.90;;;;;;4935511;29;20414;-69
2021/08/07 09:22:05;;;;;;;3.50;3.20;;;22.40;96.60;;;;;;4935362;29;20813;-70
2021/08/07 09:24:31;;;;;;;3.40;3.20;;;22.40;96.70;;;;;;4936121;29;20176;-70
2021/08/07 09:27:04;;;;;;;3.70;3.40;;;22.50;97.40;;;;;;4939528;29;20810;-70
2021/08/07 09:29:40;;;;;;;3.30;3.03;;;22.70;97.90;;;;;;4934414;29;20517;-70
2021/08/07 09:32:07;;;;;;;4.10;3.10;;;22.80;97.20;;;;;;4935703;29;20784;-70
2021/08/07 09:34:32;;;;;;;3.27;3.07;;;22.90;96.60;;;;;;4919348;29;20423;-71
2021/08/07 09:36:58;;;;;;;3.23;3.03;;;23.00;96.30;;;;;;4914983;29;20426;-71
2021/08/07 09:39:38;;;;;;;3.50;3.20;;;23.00;95.80;;;;;;4915429;29;20207;-70
2021/08/07 09:42:04;;;;;;;5.10;4.40;;;23.00;95.00;;;;;;4932207;29;20232;-70
2021/08/07 09:44:30;;;;;;;3.10;2.90;;;23.10;96.30;;;;;;4930260;29;20417;-68
2021/08/07 09:47:11;;;;;;;3.50;3.30;;;23.10;96.00;;;;;;4918704;29;20559;-71
2021/08/07 09:49:39;;;;;;;3.47;2.93;;;23.10;95.00;;;;;;4923981;29;20815;-71
2021/08/07 09:52:06;;;;;;;3.40;3.20;;;23.10;94.90;;;;;;4918486;29;20426;-71
2021/08/07 09:54:42;;;;;;;4.70;3.00;;;23.10;94.80;;;;;;4927821;29;20425;-71
2021/08/07 09:57:21;;;;;;;2.90;2.70;;;23.00;93.70;;;;;;4934007;29;20432;-70
2021/08/07 09:59:49;;;;;;;3.20;2.93;;;22.90;94.40;;;;;;4916171;29;20889;-71
2021/08/07 10:02:24;;;;;;;2.93;2.77;;;22.90;93.80;;;;;;4922328;29;20449;-72
2021/08/07 10:04:50;;;;;;;3.30;3.10;;;22.70;93.60;;;;;;4921106;29;20824;-72
2021/08/07 10:07:16;;;;;;;3.40;3.10;;;22.50;94.30;;;;;;4921506;29;20516;-72
2021/08/07 10:09:42;;;;;;;3.30;2.97;;;22.60;94.40;;;;;;4922615;29;20497;-72
2021/08/07 10:12:10;;;;;;;4.30;3.27;;;22.60;94.40;;;;;;4923627;29;20210;-71
2021/08/07 10:14:37;;;;;;;4.30;3.70;;;22.60;94.30;;;;;;4923265;29;20517;-70
2021/08/07 10:17:04;;;;;;;2.90;2.73;;;22.50;93.80;;;;;;4921696;29;20436;-70
2021/08/07 10:19:32;;;;;;;2.90;2.70;;;22.40;94.30;;;;;;4923598;29;20490;-67
2021/08/07 10:21:58;;;;;;;3.30;3.00;;;22.50;95.00;;;;;;4922911;29;20469;-68
2021/08/07 10:24:26;;;;;;;66.03;52.27;;;22.40;93.80;;;;;;4922744;29;20446;-69
2021/08/07 10:26:53;;;;;;;28.33;23.53;;;22.50;95.80;;;;;;4916986;29;20435;-68
2021/08/07 10:29:27;;;;;;;10.33;8.60;;;22.50;96.00;;;;;;4918888;29;20493;-69
2021/08/07 10:31:53;;;;;;;10.33;7.93;;;22.50;95.40;;;;;;4939121;29;20461;-69
2021/08/07 10:34:21;;;;;;;6.37;5.77;;;22.40;94.40;;;;;;4943525;28;20428;-70
2021/08/07 10:36:47;;;;;;;3.93;3.70;;;22.50;94.90;;;;;;4946106;28;20269;-71
2021/08/07 10:39:13;;;;;;;4.07;3.77;;;22.50;94.40;;;;;;4945837;29;20528;-71
2021/08/07 10:41:40;;;;;;;8.73;5.30;;;22.40;94.00;;;;;;4945018;28;20425;-70
2021/08/07 10:44:06;;;;;;;3.83;3.43;;;22.40;94.60;;;;;;4936594;28;20937;-68
2021/08/07 10:46:32;;;;;;;3.80;3.43;;;22.50;93.60;;;;;;4951369;28;20434;-71
2021/08/07 10:48:58;;;;;;;4.20;3.80;;;22.40;95.10;;;;;;4937222;29;20428;-69
2021/08/07 10:51:23;;;;;;;6.27;3.53;;;22.40;94.80;;;;;;4936357;29;20193;-69
2021/08/07 10:54:23;;;;;;;4.90;4.50;;;22.40;93.70;;;;;;4938740;28;20198;-69
2021/08/07 10:56:48;;;;;;;5.40;4.90;;;22.40;95.40;;;;;;4935466;29;20200;-69
2021/08/07 10:59:17;;;;;;;4.67;4.30;;;22.40;93.80;;;;;;4941095;29;20469;-73
2021/08/07 11:01:44;;;;;;;3.63;3.30;;;22.40;94.40;;;;;;4944662;28;20528;-69
2021/08/07 11:04:15;;;;;;;5.67;5.33;;;22.50;94.30;;;;;;4937022;29;20452;-70
2021/08/07 11:06:43;;;;;;;5.23;3.57;;;22.50;93.80;;;;;;4936428;29;20909;-69
2021/08/07 11:09:28;;;;;;;5.07;4.07;;;22.50;93.70;;;;;;4937480;29;20930;-69
2021/08/07 11:12:06;;;;;;;4.20;3.40;;;22.40;95.00;;;;;;4940272;29;20417;-69
2021/08/07 11:14:34;;;;;;;4.43;4.03;;;22.40;94.20;;;;;;4947667;29;20425;-69
2021/08/07 11:17:06;;;;;;;17.43;15.67;;;22.40;94.70;;;;;;4936818;29;20501;-69
2021/08/07 11:20:05;;;;;;;33.20;29.77;;;22.50;95.10;;;;;;4938744;29;20460;-69
2021/08/07 11:22:31;;;;;;;11.10;10.00;;;22.40;94.30;;;;;;4936608;29;20540;-69
2021/08/07 11:25:01;;;;;;;9.67;8.77;;;22.40;95.60;;;;;;4937147;29;20426;-69
2021/08/07 11:27:52;;;;;;;8.30;6.27;;;22.40;96.50;;;;;;4936547;29;20201;-70
2021/08/07 11:30:23;;;;;;;5.60;4.77;;;22.40;95.40;;;;;;4936400;29;20496;-74
2021/08/07 11:32:58;;;;;;;4.60;4.20;;;22.40;95.30;;;;;;4934098;29;20430;-69
2021/08/07 11:35:37;;;;;;;4.37;4.00;;;22.30;96.00;;;;;;4938986;29;20429;-71
2021/08/07 11:38:06;;;;;;;4.67;4.27;;;22.30;96.20;;;;;;4939024;29;20786;-71
2021/08/07 11:40:56;;;;;;;6.37;4.90;;;22.20;96.80;;;;;;4955347;28;20412;-71
2021/08/07 11:43:26;;;;;;;5.93;5.10;;;22.20;97.30;;;;;;4936451;29;20418;-71
2021/08/07 11:45:54;;;;;;;4.30;3.33;;;22.20;97.30;;;;;;4936954;29;20530;-70
2021/08/07 11:48:45;;;;;;;3.93;3.63;;;22.20;97.50;;;;;;4948641;28;20478;-72
2021/08/07 11:51:21;;;;;;;3.80;3.50;;;22.20;97.80;;;;;;4939296;28;20422;-71
2021/08/07 11:53:47;;;;;;;5.53;4.50;;;22.20;97.90;;;;;;4938542;29;20430;-71
2021/08/07 11:56:17;;;;;;;4.40;4.00;;;22.30;97.90;;;;;;4955857;28;20459;-71
2021/08/07 11:58:45;;;;;;;4.00;3.70;;;22.20;97.80;;;;;;4943977;28;20654;-72
2021/08/07 12:01:11;;;;;;;5.07;4.67;;;22.30;97.90;;;;;;4934928;29;20918;-71
2021/08/07 12:03:42;;;;;;;4.80;3.90;;;22.30;98.00;;;;;;4940453;29;20931;-71
2021/08/07 12:06:09;;;;;;;4.20;3.90;;;22.30;98.30;;;;;;4935344;28;20422;-71
2021/08/07 12:08:36;;;;;;;6.07;4.43;;;22.30;98.40;;;;;;4935039;29;20434;-71
2021/08/07 12:11:10;;;;;;;5.50;3.87;;;22.40;98.40;;;;;;4940312;29;20428;-69
2021/08/07 12:13:41;;;;;;;10.80;9.70;;;22.40;98.60;;;;;;4943457;29;20420;-69
2021/08/07 12:16:11;;;;;;;7.67;4.43;;;22.40;98.80;;;;;;4943832;28;20409;-69
2021/08/07 12:18:51;;;;;;;4.40;4.00;;;22.40;98.90;;;;;;4933821;29;20457;-69
2021/08/07 12:21:23;;;;;;;3.43;3.23;;;22.40;98.60;;;;;;4935704;29;20416;-69
2021/08/07 12:23:51;;;;;;;5.20;4.80;;;22.50;98.60;;;;;;4936339;29;20495;-71
2021/08/07 12:26:18;;;;;;;4.40;4.00;;;22.40;98.30;;;;;;4935184;29;20406;-77
2021/08/07 12:28:45;;;;;;;4.97;3.80;;;22.30;97.20;;;;;;4936232;29;20768;-70
2021/08/07 12:31:11;;;;;;;3.80;3.17;;;22.20;98.40;;;;;;4934748;29;20469;-71
2021/08/07 12:33:40;;;;;;;4.60;4.30;;;22.20;99.30;;;;;;4934391;29;20468;-71
2021/08/07 12:36:11;;;;;;;5.37;4.97;;;22.10;98.90;;;;;;4936059;29;20430;-67
2021/08/07 12:38:41;;;;;;;3.80;3.60;;;22.10;99.00;;;;;;4938921;29;20460;-69
2021/08/07 12:41:07;;;;;;;3.33;3.13;;;22.10;99.70;;;;;;4955206;28;20409;-69
2021/08/07 12:43:34;;;;;;;4.20;3.80;;;22.20;99.90;;;;;;4954606;28;20749;-70
2021/08/07 12:46:08;;;;;;;3.47;3.27;;;22.10;99.90;;;;;;4939434;28;20496;-70
2021/08/07 12:48:53;;;;;;;3.33;3.13;;;22.20;99.90;;;;;;4935517;29;20398;-70